Terminal Aerodrome Forecast
Issued by NWS Mt. Holly, NJ

Home | Current Version | Previous Version | Text Only | Print | Product List | Glossary On
Versions: 1 2 3 4 5 6 7 8 9 10 11 12 13 14 15 16 17 18 19 20 21
000
FTUS41 KPHI 121500 AAA
TAFRDG
TAF AMD
KRDG 121509Z 1215/1312 22008KT P6SM SCT035
      TEMPO 1215/1217 BKN025
     FM130000 17004KT P6SM SCT050
     FM130600 VRB03KT P6SM BKN050
     FM130900 VRB03KT 4SM BR BKN050=

USA.gov is the U.S. government's official web portal to all federal, state and local government web resources and services.